Time;durP1;ratioP1;P1;durP2;ratioP2;P2;SDS_P1;SDS_P2;PMS_P1;PMS_P2;Temp;Humidity;BMP_temperature;BMP_pressure;BME280_temperature;BME280_humidity;BME280_pressure;Samples;Min_cycle;Max_cycle;Signal;HPM_P1;HPM_P2
2022/05/18 00:00:06;;;;;;;13.23;10.43;;;;;;;17.52;76.32;101806.78;5088470;28;20048;-73
2022/05/18 00:02:34;;;;;;;12.70;9.68;;;;;;;17.44;76.83;101810.88;5102986;27;20044;-73
2022/05/18 00:05:00;;;;;;;12.55;10.20;;;;;;;17.44;77.16;101810.88;5109353;28;20662;-73
2022/05/18 00:07:27;;;;;;;15.98;10.82;;;;;;;17.48;76.97;101817.66;5115561;27;20039;-73
2022/05/18 00:09:53;;;;;;;13.52;9.65;;;;;;;17.47;76.07;101816.84;5126595;27;20042;-73
2022/05/18 00:12:20;;;;;;;12.02;9.00;;;;;;;17.25;76.37;101816.50;5125341;27;20104;-73
2022/05/18 00:14:46;;;;;;;10.93;9.18;;;;;;;17.02;76.19;101820.56;5110085;27;20139;-73
2022/05/18 00:17:12;;;;;;;11.52;9.38;;;;;;;16.99;76.83;101814.59;5113443;27;20137;-74
2022/05/18 00:19:40;;;;;;;11.27;8.68;;;;;;;16.89;77.58;101824.03;5108222;27;20048;-73
2022/05/18 00:22:06;;;;;;;16.73;11.55;;;;;;;16.92;77.39;101826.53;5110553;27;20179;-73
2022/05/18 00:24:33;;;;;;;14.48;11.38;;;;;;;16.64;78.09;101826.47;5111546;27;20051;-73
2022/05/18 00:27:03;;;;;;;22.23;13.48;;;;;;;16.04;82.67;101831.72;5111099;27;20532;-73
2022/05/18 00:29:29;;;;;;;22.02;14.52;;;;;;;16.18;82.95;101831.78;5116381;27;20062;-73
2022/05/18 00:31:55;;;;;;;19.27;14.15;;;;;;;16.22;82.43;101832.47;5130787;27;20542;-75
2022/05/18 00:34:22;;;;;;;17.85;13.55;;;;;;;16.39;82.44;101833.19;5125122;27;20079;-74
2022/05/18 00:36:49;;;;;;;19.90;15.15;;;;;;;16.30;83.67;101828.41;5117935;27;20043;-74
2022/05/18 00:39:16;;;;;;;22.00;12.98;;;;;;;16.74;81.21;101831.09;5123138;27;20071;-74
2022/05/18 00:41:42;;;;;;;15.70;11.63;;;;;;;16.81;79.63;101827.19;5110530;27;20071;-73
2022/05/18 00:44:09;;;;;;;14.20;11.32;;;;;;;16.82;78.91;101823.56;5110258;27;20051;-73
2022/05/18 00:46:35;;;;;;;14.32;11.52;;;;;;;16.85;78.88;101827.84;5109179;27;20831;-74
2022/05/18 00:49:03;;;;;;;13.05;10.77;;;;;;;16.90;77.73;101834.56;5109422;27;20067;-74
2022/05/18 00:51:34;;;;;;;19.92;11.25;;;;;;;16.86;77.74;101827.72;5110584;27;20103;-74
2022/05/18 00:54:06;;;;;;;16.70;12.15;;;;;;;16.85;77.83;101838.44;5110400;27;20043;-74
2022/05/18 00:56:37;;;;;;;14.93;12.07;;;;;;;16.42;79.58;101843.59;5109968;28;20040;-74
2022/05/18 00:59:08;;;;;;;12.75;10.15;;;;;;;16.59;79.39;101847.94;5108907;28;20632;-74
2022/05/18 01:01:35;;;;;;;14.52;10.40;;;;;;;16.60;78.84;101840.81;5112318;27;20047;-74
2022/05/18 01:04:03;;;;;;;50.80;12.32;;;;;;;16.52;78.95;101842.09;5124541;27;20076;-74
2022/05/18 01:06:35;;;;;;;27.77;11.07;;;;;;;16.61;78.48;101835.44;5112292;27;20039;-74
2022/05/18 01:09:06;;;;;;;16.85;10.73;;;;;;;16.58;78.25;101834.78;5109395;27;20443;-74
2022/05/18 01:11:34;;;;;;;12.23;10.25;;;;;;;16.63;77.88;101838.84;5110286;27;20461;-74
2022/05/18 01:14:07;;;;;;;16.08;10.57;;;;;;;16.40;78.82;101842.00;5119363;27;20503;-74
2022/05/18 01:16:33;;;;;;;28.33;12.52;;;;;;;16.59;78.24;101847.09;5094889;27;20448;-74
2022/05/18 01:19:00;;;;;;;13.15;11.73;;;;;;;16.74;77.25;101840.88;5110213;27;20044;-74
2022/05/18 01:21:36;;;;;;;12.70;10.80;;;;;;;16.64;77.03;101842.34;5106800;27;20063;-75
2022/05/18 01:24:15;;;;;;;16.20;11.88;;;;;;;16.47;78.08;101833.59;5104648;27;20043;-74
2022/05/18 01:26:45;;;;;;;14.30;11.77;;;;;;;16.60;77.97;101841.69;5109877;28;20511;-74
2022/05/18 01:29:13;;;;;;;14.43;12.18;;;;;;;16.67;77.75;101835.06;5109043;27;20047;-74
2022/05/18 01:31:47;;;;;;;13.10;11.43;;;;;;;16.66;77.48;101848.44;5109056;28;20495;-74
2022/05/18 01:34:15;;;;;;;12.70;10.98;;;;;;;16.69;76.48;101837.66;5108937;27;20199;-74
2022/05/18 01:36:41;;;;;;;11.88;9.50;;;;;;;16.75;76.23;101848.72;5124381;27;20511;-74
2022/05/18 01:39:14;;;;;;;15.45;11.50;;;;;;;16.74;76.26;101851.47;5104604;27;20093;-74
2022/05/18 01:41:52;;;;;;;12.60;10.95;;;;;;;16.54;76.74;101853.47;5106766;27;20052;-74
2022/05/18 01:44:18;;;;;;;12.80;11.30;;;;;;;16.24;77.24;101852.59;5108522;27;20083;-74
2022/05/18 01:46:46;;;;;;;11.82;10.38;;;;;;;15.92;78.97;101856.22;5109777;27;20128;-74
2022/05/18 01:49:12;;;;;;;14.35;12.85;;;;;;;15.37;83.20;101856.56;5113639;27;20051;-74
2022/05/18 01:51:43;;;;;;;21.25;15.55;;;;;;;15.47;83.32;101856.94;5108599;27;20047;-74
2022/05/18 01:54:09;;;;;;;23.92;17.23;;;;;;;15.90;83.98;101861.59;5119766;27;20055;-74
2022/05/18 01:56:36;;;;;;;27.30;17.50;;;;;;;16.07;83.92;101861.50;5124267;27;20792;-74
2022/05/18 01:59:04;;;;;;;26.17;18.95;;;;;;;16.13;84.24;101862.09;5128680;27;20459;-74
2022/05/18 02:01:30;;;;;;;24.25;19.02;;;;;;;16.22;83.85;101864.22;5129876;27;20111;-74
2022/05/18 02:03:57;;;;;;;22.70;17.70;;;;;;;16.24;83.39;101863.19;5109279;27;20079;-74
2022/05/18 02:06:23;;;;;;;19.63;15.80;;;;;;;15.98;84.02;101859.38;5107254;27;20108;-74
2022/05/18 02:08:50;;;;;;;21.75;16.05;;;;;;;15.88;84.84;101867.91;5107928;28;20070;-74
2022/05/18 02:11:20;;;;;;;22.05;15.85;;;;;;;15.89;84.20;101873.09;5107969;27;20264;-74
2022/05/18 02:13:47;;;;;;;23.75;17.33;;;;;;;15.97;84.91;101875.31;5108564;27;20612;-73
2022/05/18 02:16:15;;;;;;;22.80;17.33;;;;;;;15.90;85.48;101866.03;5115544;27;20465;-73
2022/05/18 02:18:41;;;;;;;21.88;17.67;;;;;;;16.31;83.83;101874.25;5107358;27;20115;-73
2022/05/18 02:21:10;;;;;;;20.20;16.83;;;;;;;16.22;84.16;101873.00;5103780;27;20428;-73
2022/05/18 02:23:37;;;;;;;19.92;16.27;;;;;;;16.26;83.25;101876.34;5110782;27;20043;-73
2022/05/18 02:26:06;;;;;;;20.30;16.27;;;;;;;16.79;81.19;101873.22;5110075;27;20195;-73
2022/05/18 02:28:32;;;;;;;19.83;15.50;;;;;;;16.90;80.25;101865.47;5110345;27;20510;-73
2022/05/18 02:30:59;;;;;;;20.00;15.43;;;;;;;16.77;80.58;101861.88;5100091;27;20043;-74
2022/05/18 02:33:26;;;;;;;18.15;14.95;;;;;;;16.86;79.99;101869.25;5089934;28;20048;-74
2022/05/18 02:35:53;;;;;;;17.50;14.63;;;;;;;16.89;79.84;101853.19;5093334;27;20085;-74
2022/05/18 02:38:19;;;;;;;16.13;14.43;;;;;;;16.62;80.16;101866.28;5110842;28;20051;-74
2022/05/18 02:40:46;;;;;;;16.48;14.70;;;;;;;16.44;80.74;101865.53;5109598;27;20085;-74
2022/05/18 02:43:12;;;;;;;20.60;16.27;;;;;;;16.04;82.94;101861.66;5110405;28;20052;-74
2022/05/18 02:45:38;;;;;;;17.83;15.20;;;;;;;15.98;83.07;101869.09;5109672;27;20088;-74
2022/05/18 02:48:05;;;;;;;18.75;16.75;;;;;;;16.11;82.75;101859.56;5104933;27;20067;-73
2022/05/18 02:50:33;;;;;;;16.85;15.02;;;;;;;16.30;81.14;101861.97;5109602;27;20048;-73
2022/05/18 02:53:00;;;;;;;17.88;14.57;;;;;;;16.43;80.69;101858.53;5110058;27;20050;-74
2022/05/18 02:58:11;;;;;;;21.38;15.20;;;;;;;16.32;80.90;101860.97;5110533;27;20054;-74
2022/05/18 03:00:37;;;;;;;16.75;14.05;;;;;;;16.43;80.33;101863.84;5108822;27;20048;-74
2022/05/18 03:03:04;;;;;;;18.13;14.13;;;;;;;16.55;79.94;101865.75;5109620;28;20063;-74
2022/05/18 03:05:30;;;;;;;19.08;14.25;;;;;;;15.86;81.72;101860.06;5104785;27;20122;-73
2022/05/18 03:07:59;;;;;;;19.15;14.45;;;;;;;16.14;81.10;101877.03;5110045;28;20097;-73
2022/05/18 03:10:25;;;;;;;17.10;13.32;;;;;;;15.54;83.97;101872.44;5109372;28;20411;-73
2022/05/18 03:12:52;;;;;;;17.55;13.73;;;;;;;15.90;82.31;101869.53;5110154;27;20043;-73
2022/05/18 03:15:19;;;;;;;16.50;13.30;;;;;;;16.03;81.18;101875.00;5110160;28;20434;-74
2022/05/18 03:17:45;;;;;;;15.68;14.00;;;;;;;15.95;81.93;101871.94;5110156;27;20129;-74
2022/05/18 03:23:33;;;;;;;16.20;13.68;;;;;;;16.14;80.60;101883.19;5109378;27;20047;-74
2022/05/18 03:25:43;;;;;;;19.38;14.38;;;;;;;16.03;81.62;101881.16;5109471;28;20415;-73
2022/05/18 03:28:10;;;;;;;18.55;15.60;;;;;;;15.87;82.03;101876.78;5110019;28;20051;-73
2022/05/18 03:30:36;;;;;;;19.70;16.42;;;;;;;15.71;82.85;101876.78;5109404;28;20047;-73
2022/05/18 03:33:03;;;;;;;16.60;14.10;;;;;;;15.92;82.12;101872.09;5109580;28;20130;-73
2022/05/18 03:35:30;;;;;;;16.98;15.15;;;;;;;15.74;83.08;101878.41;5109617;28;20048;-73
2022/05/18 03:37:56;;;;;;;21.42;16.38;;;;;;;15.69;83.65;101870.72;5109665;27;20035;-73
2022/05/18 03:40:24;;;;;;;19.95;15.75;;;;;;;15.44;84.49;101875.63;5109496;28;20069;-73
2022/05/18 03:42:51;;;;;;;18.65;14.68;;;;;;;15.08;85.76;101881.03;5109773;28;20419;-73
2022/05/18 03:45:17;;;;;;;19.15;14.25;;;;;;;15.29;85.52;101890.50;5109343;28;20055;-72
2022/05/18 03:47:43;;;;;;;15.80;13.70;;;;;;;15.56;83.94;101886.41;5114877;27;20491;-72
2022/05/18 03:50:11;;;;;;;17.80;14.30;;;;;;;15.77;82.74;101887.03;5108686;27;20104;-73
2022/05/18 03:52:37;;;;;;;18.77;14.15;;;;;;;15.77;82.35;101891.47;5112422;27;20047;-73
2022/05/18 03:55:04;;;;;;;17.63;14.07;;;;;;;15.62;83.51;101889.66;5109117;28;20044;-73
2022/05/18 03:57:32;;;;;;;15.80;13.15;;;;;;;15.80;82.40;101886.84;5105192;28;20093;-73
2022/05/18 03:59:58;;;;;;;15.40;13.80;;;;;;;15.55;82.84;101895.28;5101508;27;20580;-73
2022/05/18 04:02:25;;;;;;;15.85;14.15;;;;;;;15.56;83.91;101899.63;5104828;28;20051;-73
2022/05/18 04:04:51;;;;;;;21.02;14.80;;;;;;;15.90;82.45;101905.72;5109008;28;20044;-73
2022/05/18 04:07:17;;;;;;;18.15;13.88;;;;;;;16.50;79.56;101902.25;5109549;28;20550;-73
2022/05/18 04:09:47;;;;;;;16.75;13.68;;;;;;;16.40;80.21;101901.09;5108458;27;20092;-73
2022/05/18 04:12:14;;;;;;;17.30;14.10;;;;;;;15.88;82.40;101911.09;5107255;28;20055;-73
2022/05/18 04:14:41;;;;;;;19.85;14.52;;;;;;;15.79;83.30;101916.88;5108861;27;20048;-73
2022/05/18 04:17:08;;;;;;;17.27;14.35;;;;;;;15.94;82.91;101918.69;5120650;27;20664;-73
2022/05/18 04:19:35;;;;;;;19.55;14.40;;;;;;;15.92;83.15;101917.94;5108544;27;20043;-73
2022/05/18 04:22:01;;;;;;;18.00;15.00;;;;;;;16.19;82.72;101923.44;5107326;27;20040;-73
2022/05/18 04:24:27;;;;;;;19.40;14.55;;;;;;;16.21;82.25;101915.44;5096350;28;20097;-73
2022/05/18 04:26:54;;;;;;;20.45;14.57;;;;;;;16.29;82.51;101924.66;5105304;27;20060;-73
2022/05/18 04:29:20;;;;;;;17.90;14.63;;;;;;;16.32;81.90;101927.13;5102867;28;20415;-73
2022/05/18 04:31:48;;;;;;;17.92;14.90;;;;;;;16.01;83.64;101924.47;5105171;28;20100;-72
2022/05/18 04:34:15;;;;;;;22.80;15.38;;;;;;;16.07;83.77;101930.28;5108562;27;20480;-73
2022/05/18 04:36:43;;;;;;;17.85;15.25;;;;;;;16.48;82.11;101927.94;5109031;28;20475;-73
2022/05/18 04:39:09;;;;;;;18.77;15.73;;;;;;;17.07;79.66;101931.59;5108560;28;20056;-73
2022/05/18 04:41:35;;;;;;;18.38;14.68;;;;;;;17.16;78.95;101941.63;5108793;28;20040;-73
2022/05/18 04:44:02;;;;;;;18.33;15.07;;;;;;;16.58;81.09;101944.19;5109384;28;20043;-73
2022/05/18 04:46:28;;;;;;;18.73;14.90;;;;;;;16.46;82.20;101939.56;5103021;28;20098;-73
2022/05/18 04:48:55;;;;;;;20.20;15.68;;;;;;;16.93;80.86;101942.13;5090199;28;20132;-73
2022/05/18 04:51:22;;;;;;;16.35;14.57;;;;;;;17.20;79.61;101940.50;5108413;27;20106;-73
2022/05/18 04:53:48;;;;;;;19.65;14.52;;;;;;;17.25;79.39;101943.72;5107398;27;20659;-73
2022/05/18 04:56:15;;;;;;;19.92;16.20;;;;;;;17.22;79.67;101943.88;5108643;28;20145;-73
2022/05/18 04:58:41;;;;;;;18.17;15.68;;;;;;;17.75;78.97;101942.44;5111182;27;20454;-73
2022/05/18 05:01:09;;;;;;;20.10;16.23;;;;;;;17.50;79.00;101949.25;5108979;27;20047;-73
2022/05/18 05:03:36;;;;;;;17.27;15.48;;;;;;;17.60;78.97;101946.03;5105207;27;20093;-73
2022/05/18 05:06:05;;;;;;;17.17;14.77;;;;;;;17.65;78.98;101949.28;5112762;27;20039;-73
2022/05/18 05:08:34;;;;;;;18.30;15.07;;;;;;;17.46;79.22;101946.88;5112645;27;20063;-73
2022/05/18 05:11:03;;;;;;;18.85;15.45;;;;;;;17.87;78.17;101944.31;5111020;27;20367;-75
2022/05/18 05:13:30;;;;;;;18.30;15.18;;;;;;;18.26;77.04;101949.72;5112540;27;20044;-75
2022/05/18 05:16:01;;;;;;;16.98;15.07;;;;;;;18.55;76.66;101945.19;5112603;28;20073;-75
2022/05/18 05:18:28;;;;;;;19.05;15.10;;;;;;;18.13;77.77;101955.94;5110867;28;20043;-74
2022/05/18 05:20:54;;;;;;;17.38;14.70;;;;;;;18.11;78.17;101960.50;5100322;27;20089;-74
2022/05/18 05:23:24;;;;;;;21.17;15.73;;;;;;;18.45;76.48;101950.25;5111839;27;20059;-74
2022/05/18 05:25:50;;;;;;;17.42;14.90;;;;;;;17.71;77.75;101951.53;5111475;27;20047;-74
2022/05/18 05:28:16;;;;;;;18.75;14.95;;;;;;;17.58;78.84;101950.59;5111197;27;20399;-74
2022/05/18 05:30:43;;;;;;;19.17;15.88;;;;;;;17.73;79.09;101960.25;5111446;27;20548;-73
2022/05/18 05:33:11;;;;;;;18.63;15.82;;;;;;;18.00;77.97;101954.06;5112729;27;20088;-73
2022/05/18 05:35:40;;;;;;;17.98;16.08;;;;;;;17.83;78.60;101950.78;5119191;27;20043;-74
2022/05/18 05:38:06;;;;;;;16.60;14.63;;;;;;;18.35;77.46;101959.78;5108459;27;20187;-74
2022/05/18 05:40:34;;;;;;;21.17;15.93;;;;;;;18.31;76.88;101963.56;5110954;27;20116;-74
2022/05/18 05:43:06;;;;;;;16.35;14.65;;;;;;;18.44;77.04;101964.47;5103081;27;20104;-74
2022/05/18 05:45:32;;;;;;;18.63;15.55;;;;;;;18.46;76.43;101957.28;5116932;27;20058;-72
2022/05/18 05:47:59;;;;;;;16.90;15.10;;;;;;;18.52;76.87;101964.00;5110864;27;20073;-73
2022/05/18 05:50:40;;;;;;;18.58;15.48;;;;;;;18.63;75.19;101971.25;5103849;27;20049;-74
2022/05/18 05:53:06;;;;;;;18.10;15.48;;;;;;;18.13;78.64;101977.19;5111385;28;20505;-74
2022/05/18 05:55:34;;;;;;;17.13;15.13;;;;;;;18.58;76.17;101970.72;5107332;28;20048;-74
2022/05/18 05:58:01;;;;;;;16.60;14.88;;;;;;;19.04;74.96;101973.81;5118089;27;20043;-73
2022/05/18 06:00:27;;;;;;;19.73;15.00;;;;;;;19.59;73.52;101966.44;5096356;27;20048;-75
2022/05/18 06:02:54;;;;;;;16.02;14.40;;;;;;;20.01;71.23;101977.69;5107574;27;20104;-75
2022/05/18 06:05:21;;;;;;;17.80;15.02;;;;;;;20.00;70.14;101973.31;5102507;27;20059;-74
2022/05/18 06:07:47;;;;;;;19.40;15.27;;;;;;;19.89;71.20;101979.41;5100975;27;20040;-73
2022/05/18 06:10:14;;;;;;;18.02;14.88;;;;;;;20.20;70.50;101980.72;5106674;28;20047;-75
2022/05/18 06:12:42;;;;;;;17.92;16.02;;;;;;;20.17;70.97;101972.97;5090406;28;20077;-74
2022/05/18 06:15:10;;;;;;;17.75;15.55;;;;;;;20.49;70.20;101981.28;5095700;28;20083;-74
2022/05/18 06:17:37;;;;;;;18.40;15.65;;;;;;;20.64;69.79;101977.50;5109339;27;20081;-74
2022/05/18 06:20:04;;;;;;;16.58;14.85;;;;;;;20.11;70.94;101971.56;5107537;28;20083;-74
2022/05/18 06:22:30;;;;;;;16.98;14.95;;;;;;;19.73;71.28;101976.13;5102993;27;20086;-74
2022/05/18 06:24:57;;;;;;;18.88;15.65;;;;;;;19.41;73.45;101979.22;5110544;27;20043;-75
2022/05/18 06:27:24;;;;;;;17.65;15.77;;;;;;;19.40;71.65;101966.00;5114242;28;20081;-73
2022/05/18 06:29:52;;;;;;;20.58;15.30;;;;;;;19.06;74.36;101967.47;5094701;28;20048;-72
2022/05/18 06:32:19;;;;;;;18.58;15.63;;;;;;;19.62;73.50;101962.75;5102093;27;20051;-72
2022/05/18 06:34:45;;;;;;;16.45;14.70;;;;;;;19.57;71.67;101963.06;5109193;27;20511;-72
2022/05/18 06:37:12;;;;;;;16.83;14.57;;;;;;;19.38;72.16;101963.44;5096188;28;20499;-73
2022/05/18 06:39:38;;;;;;;23.30;16.40;;;;;;;18.91;75.54;101976.47;5106816;27;20120;-73
2022/05/18 06:42:06;;;;;;;19.70;15.82;;;;;;;19.63;73.32;101975.06;5097970;28;20043;-73
2022/05/18 06:44:32;;;;;;;16.83;15.10;;;;;;;19.71;70.06;101980.69;5110799;28;20104;-74
2022/05/18 06:47:01;;;;;;;17.45;15.45;;;;;;;18.89;73.15;101971.25;5109416;27;20039;-74
2022/05/18 06:49:28;;;;;;;17.33;15.43;;;;;;;18.83;73.51;101984.09;5099423;27;20516;-74
2022/05/18 06:51:56;;;;;;;18.20;15.15;;;;;;;18.81;73.43;101976.22;5107115;27;20055;-74
2022/05/18 06:54:23;;;;;;;17.38;15.27;;;;;;;18.90;73.48;101980.06;5110005;27;20078;-73
2022/05/18 06:56:49;;;;;;;17.00;14.52;;;;;;;19.95;70.64;101981.66;5104454;27;20040;-73
2022/05/18 06:59:16;;;;;;;17.35;14.95;;;;;;;20.75;68.87;102001.53;5089975;27;20048;-74
2022/05/18 07:01:43;;;;;;;17.90;14.68;;;;;;;20.77;66.77;101997.78;5096944;27;20051;-74
2022/05/18 07:04:11;;;;;;;20.40;14.48;;;;;;;21.19;65.92;101998.22;5109115;27;20442;-74
2022/05/18 07:06:40;;;;;;;18.55;14.85;;;;;;;21.29;64.09;102000.06;5091426;28;20064;-74
2022/05/18 07:09:09;;;;;;;18.33;15.18;;;;;;;21.36;63.65;102000.44;5091150;28;20059;-74
2022/05/18 07:11:36;;;;;;;18.60;15.00;;;;;;;21.30;64.36;101995.56;5090705;28;20048;-74
2022/05/18 07:14:05;;;;;;;21.85;15.27;;;;;;;21.84;61.58;102001.09;5107790;27;20043;-74
2022/05/18 07:16:32;;;;;;;20.50;15.70;;;;;;;21.15;64.50;102004.75;5109244;27;20092;-75
2022/05/18 07:18:59;;;;;;;19.77;15.73;;;;;;;20.37;67.65;102001.69;5108940;27;20047;-75
2022/05/18 07:21:27;;;;;;;16.88;15.00;;;;;;;20.63;68.04;102002.44;5108456;27;20116;-74
2022/05/18 07:23:55;;;;;;;18.48;16.02;;;;;;;20.91;67.81;102001.25;5106247;27;20116;-75
2022/05/18 07:26:22;;;;;;;16.98;14.30;;;;;;;22.02;63.75;102002.34;5100439;28;20047;-74
2022/05/18 07:28:50;;;;;;;21.48;15.23;;;;;;;22.38;63.75;101982.50;5098702;28;20047;-74
2022/05/18 07:31:20;;;;;;;16.90;15.07;;;;;;;22.16;60.85;101994.09;5109599;27;20052;-74
2022/05/18 07:33:47;;;;;;;16.42;14.50;;;;;;;21.04;65.32;101997.53;5105350;27;20044;-75
2022/05/18 07:36:14;;;;;;;20.50;15.85;;;;;;;21.39;63.97;101999.38;5093635;27;20048;-74
2022/05/18 07:38:43;;;;;;;17.95;15.68;;;;;;;22.21;61.50;101996.34;5106397;27;20047;-75
2022/05/18 07:41:13;;;;;;;20.33;15.73;;;;;;;23.01;59.58;101995.06;5108608;28;20044;-75
2022/05/18 07:43:40;;;;;;;20.33;14.60;;;;;;;23.41;58.74;101986.31;5091312;28;20055;-74
2022/05/18 07:46:08;;;;;;;23.15;15.43;;;;;;;23.60;56.61;101991.81;5097743;28;20537;-74
2022/05/18 07:48:35;;;;;;;18.85;15.18;;;;;;;23.58;59.77;101997.28;5111706;28;20050;-74
2022/05/18 07:51:04;;;;;;;21.85;16.05;;;;;;;23.21;59.09;101999.56;5101028;28;20434;-74
2022/05/18 07:53:31;;;;;;;19.77;17.63;;;;;;;23.31;58.41;102009.50;5108582;27;20047;-74
2022/05/18 07:56:02;;;;;;;19.48;16.25;;;;;;;23.39;57.63;102002.47;5089748;28;20044;-74
2022/05/18 07:58:29;;;;;;;20.20;15.45;;;;;;;23.80;58.37;102004.28;5090963;28;20044;-73
2022/05/18 08:00:55;;;;;;;18.30;16.10;;;;;;;24.59;57.06;102005.25;5103670;28;20534;-73
2022/05/18 08:03:22;;;;;;;18.48;16.58;;;;;;;24.09;57.66;101999.88;5105640;27;20487;-73
2022/05/18 08:05:48;;;;;;;20.63;16.67;;;;;;;24.18;56.51;101999.13;5111147;27;20617;-73
2022/05/18 08:08:24;;;;;;;18.48;16.52;;;;;;;23.91;56.45;102004.19;5109678;27;20051;-76
2022/05/18 08:16:20;;;;;;;24.33;16.38;;;;;;;24.00;54.67;102005.22;5091882;28;20592;-74
2022/05/18 08:18:50;;;;;;;21.88;16.30;;;;;;;23.11;58.62;102006.66;5099085;28;20048;-74
2022/05/18 08:21:16;;;;;;;23.30;15.18;;;;;;;23.87;58.44;101994.75;5102252;28;20054;-73
2022/05/18 08:23:43;;;;;;;17.85;14.55;;;;;;;24.60;56.20;102004.28;5106298;28;20048;-73
2022/05/18 08:26:09;;;;;;;16.73;14.70;;;;;;;25.11;54.27;102004.88;5118061;28;20052;-73
2022/05/18 08:28:37;;;;;;;17.92;14.32;;;;;;;25.07;52.31;102006.16;5104469;27;20496;-73
2022/05/18 08:31:04;;;;;;;16.23;13.95;;;;;;;24.68;57.26;102004.44;5123500;27;20059;-74
2022/05/18 08:33:32;;;;;;;21.85;14.13;;;;;;;24.42;53.49;102003.28;5116638;27;20155;-74
2022/05/18 08:35:58;;;;;;;18.00;13.20;;;;;;;24.41;53.26;101998.88;5116474;27;20392;-74
2022/05/18 08:38:34;;;;;;;25.45;13.50;;;;;;;23.91;52.14;101985.44;5111508;27;20073;-74
2022/05/18 08:41:10;;;;;;;17.05;12.65;;;;;;;24.32;52.98;101994.34;5115812;27;20039;-74
2022/05/18 08:43:40;;;;;;;17.23;13.05;;;;;;;25.18;50.92;101987.22;5104417;27;20043;-76
2022/05/18 08:46:16;;;;;;;14.57;12.93;;;;;;;25.97;47.80;101987.72;5092048;27;20135;-75
2022/05/18 08:49:00;;;;;;;16.95;12.68;;;;;;;26.00;51.06;101979.34;5111819;27;20439;-74
2022/05/18 08:51:41;;;;;;;16.17;12.50;;;;;;;24.77;51.80;101994.69;5105825;27;20453;-75
2022/05/18 08:54:33;;;;;;;16.83;11.65;;;;;;;25.71;51.03;101992.06;5093743;27;20056;-75
2022/05/18 08:57:02;;;;;;;21.35;11.77;;;;;;;25.17;55.61;102004.31;5082454;28;20039;-75
2022/05/18 08:59:35;;;;;;;13.10;9.82;;;;;;;23.92;50.77;101989.81;5082751;28;20052;-75
2022/05/18 09:02:09;;;;;;;14.23;9.25;;;;;;;23.97;49.88;101998.31;5114034;27;20047;-75
2022/05/18 09:04:45;;;;;;;13.23;9.57;;;;;;;24.84;48.81;101999.38;5113775;27;20111;-75
2022/05/18 09:07:16;;;;;;;11.45;7.45;;;;;;;24.55;51.55;102002.00;5113779;27;20126;-74
2022/05/18 09:10:13;;;;;;;13.77;8.50;;;;;;;24.74;48.83;101998.50;5112715;27;20073;-75
2022/05/18 09:12:41;;;;;;;12.80;8.90;;;;;;;23.98;48.07;101997.31;5116510;27;20471;-69
2022/05/18 09:15:13;;;;;;;13.65;8.65;;;;;;;24.53;49.51;101997.78;5119832;27;20058;-76
2022/05/18 09:17:48;;;;;;;18.85;8.65;;;;;;;25.74;48.05;102001.66;5113893;27;20118;-75
2022/05/18 09:20:24;;;;;;;10.23;9.18;;;;;;;26.01;43.28;101991.81;5100550;27;20390;-76
2022/05/18 09:23:09;;;;;;;11.52;8.82;;;;;;;25.13;46.28;101992.16;5104536;27;20084;-75
2022/05/18 09:25:51;;;;;;;12.05;9.45;;;;;;;25.62;49.17;101985.72;5112533;27;20100;-75
2022/05/18 09:28:28;;;;;;;15.93;10.00;;;;;;;25.71;47.22;101996.59;5117177;27;20452;-75
2022/05/18 09:31:07;;;;;;;18.08;10.77;;;;;;;25.48;47.57;101994.22;5132410;27;20080;-75
2022/05/18 09:33:50;;;;;;;14.93;9.73;;;;;;;25.56;48.61;101989.00;5110359;27;20099;-77
2022/05/18 09:36:47;;;;;;;14.65;10.32;;;;;;;25.11;46.84;101996.84;5098790;27;20678;-77
2022/05/18 09:39:17;;;;;;;12.32;10.85;;;;;;;24.78;47.61;101994.56;5112692;27;20550;-79
2022/05/18 09:41:49;;;;;;;13.93;11.63;;;;;;;24.21;49.30;101993.47;5101932;28;20048;-78
2022/05/18 09:44:24;;;;;;;14.55;11.25;;;;;;;24.38;50.54;101993.81;5092456;28;20051;-76
2022/05/18 09:46:53;;;;;;;13.45;11.30;;;;;;;24.40;50.79;102002.53;5096512;28;20093;-77
2022/05/18 09:49:24;;;;;;;17.88;12.13;;;;;;;24.97;51.54;101989.22;5112011;27;20047;-79
2022/05/18 09:51:52;;;;;;;16.27;11.15;;;;;;;25.90;52.09;101985.78;5111869;27;20070;-79
2022/05/18 09:54:19;;;;;;;15.45;10.95;;;;;;;26.62;49.21;101978.53;5111694;27;20044;-79
2022/05/18 09:56:50;;;;;;;13.32;11.07;;;;;;;26.26;47.96;101984.91;5109043;27;20043;-79
2022/05/18 09:59:23;;;;;;;12.18;10.65;;;;;;;26.18;48.68;101974.03;5101615;27;20051;-78
2022/05/18 10:07:30;;;;;;;15.27;10.43;;;;;;;26.21;47.12;101962.13;5091368;28;20617;-78
2022/05/18 10:10:02;;;;;;;12.38;9.88;;;;;;;26.17;46.81;101966.94;5091392;28;20451;-77
2022/05/18 10:12:36;;;;;;;11.93;9.23;;;;;;;25.77;47.02;101959.22;5090961;28;20036;-78
2022/05/18 10:15:07;;;;;;;11.45;9.63;;;;;;;26.80;49.04;101957.00;5102993;28;20074;-78
2022/05/18 10:17:39;;;;;;;11.75;9.30;;;;;;;27.12;43.91;101948.41;5110791;27;20513;-78
2022/05/18 10:20:11;;;;;;;11.73;9.48;;;;;;;26.15;48.32;101952.81;5110357;28;20096;-78
2022/05/18 10:22:42;;;;;;;12.75;9.65;;;;;;;26.83;45.43;101945.13;5110856;27;20043;-77
2022/05/18 10:25:13;;;;;;;14.73;10.48;;;;;;;26.69;49.54;101941.09;5111017;27;20104;-77
2022/05/18 10:27:42;;;;;;;10.55;8.70;;;;;;;26.70;45.72;101947.34;5110527;27;20044;-78
2022/05/18 10:30:14;;;;;;;13.32;8.65;;;;;;;26.58;47.69;101942.19;5110516;28;20047;-79
2022/05/18 10:32:53;;;;;;;;;;;;;;;25.49;47.12;101939.53;5107527;27;20044;-78
2022/05/18 10:35:33;;;;;;;13.63;8.50;;;;;;;25.14;48.54;101945.53;5110536;28;19927;-77
2022/05/18 10:38:01;;;;;;;7.93;6.38;;;;;;;25.45;44.43;101938.13;5111052;27;20097;-78
2022/05/18 10:40:27;;;;;;;10.13;6.40;;;;;;;26.05;45.94;101931.34;5109828;27;20051;-78
2022/05/18 10:42:56;;;;;;;9.88;6.22;;;;;;;26.01;44.83;101923.75;5110732;28;20047;-78
2022/05/18 10:45:33;;;;;;;13.73;6.80;;;;;;;26.24;47.21;101919.66;5094469;27;20120;-78
2022/05/18 10:48:06;;;;;;;11.10;6.50;;;;;;;26.25;43.22;101923.19;5090744;28;20445;-78
2022/05/18 10:50:34;;;;;;;7.95;5.60;;;;;;;26.11;43.51;101917.31;5093039;28;20729;-78
2022/05/18 10:53:17;;;;;;;9.13;5.78;;;;;;;25.95;41.87;101917.13;5110206;27;20091;-78
2022/05/18 10:55:56;;;;;;;16.83;6.07;;;;;;;25.61;43.33;101914.19;5089532;28;20044;-77
2022/05/18 10:58:25;;;;;;;8.27;5.10;;;;;;;25.50;44.98;101911.66;5090821;28;20465;-76
2022/05/18 11:00:55;;;;;;;6.68;4.78;;;;;;;26.07;41.78;101912.38;5089795;28;20044;-77
2022/05/18 11:03:30;;;;;;;7.28;4.45;;;;;;;27.18;40.00;101918.13;5109591;27;20048;-78
2022/05/18 11:06:03;;;;;;;6.57;4.57;;;;;;;27.13;39.46;101915.06;5110072;27;20392;-78
2022/05/18 11:08:31;;;;;;;6.50;4.95;;;;;;;27.41;38.61;101907.66;5110253;27;20552;-78
2022/05/18 11:11:06;;;;;;;4.57;3.95;;;;;;;27.74;42.35;101909.53;5110093;27;20130;-77
2022/05/18 11:13:45;;;;;;;10.15;4.35;;;;;;;28.27;38.32;101909.19;5100014;27;20088;-77
2022/05/18 11:16:25;;;;;;;7.40;4.05;;;;;;;27.48;36.96;101914.13;5130406;27;20456;-79
2022/05/18 11:18:59;;;;;;;9.07;4.25;;;;;;;26.99;40.14;101912.94;5125516;27;20043;-78
2022/05/18 11:21:40;;;;;;;5.40;4.63;;;;;;;27.19;40.61;101913.59;5113870;27;20043;-78
2022/05/18 11:24:17;;;;;;;6.10;4.35;;;;;;;27.06;38.75;101904.09;5110649;27;20049;-77
2022/05/18 11:26:57;;;;;;;5.68;3.80;;;;;;;27.74;39.97;101906.84;5110006;27;20496;-77
2022/05/18 11:29:37;;;;;;;6.75;3.75;;;;;;;27.84;37.62;101904.00;5109955;27;20051;-77
2022/05/18 11:32:26;;;;;;;6.68;4.25;;;;;;;27.35;37.63;101897.50;5112207;27;20043;-78
2022/05/18 11:35:08;;;;;;;7.10;4.68;;;;;;;27.47;36.01;101893.56;5095607;27;20083;-69
2022/05/18 11:38:12;;;;;;;9.85;5.57;;;;;;;26.67;41.24;101891.16;5103422;27;20039;-78